sensor_id;sensor_type;location;lat;lon;timestamp;P1;durP1;ratioP1;P2;durP2;ratioP2
31378;SDS011;61664;48.112;11.662;2022-09-27T00:01:03;0.45;;;0.43;;
31378;SDS011;61664;48.112;11.662;2022-09-27T00:03:34;0.60;;;0.60;;
31378;SDS011;61664;48.112;11.662;2022-09-27T00:06:07;0.52;;;0.52;;
31378;SDS011;61664;48.112;11.662;2022-09-27T00:08:37;0.60;;;0.50;;
31378;SDS011;61664;48.112;11.662;2022-09-27T00:11:05;0.50;;;0.50;;
31378;SDS011;61664;48.112;11.662;2022-09-27T00:13:57;0.50;;;0.50;;
31378;SDS011;61664;48.112;11.662;2022-09-27T00:16:25;0.50;;;0.50;;
31378;SDS011;61664;48.112;11.662;2022-09-27T00:18:59;2.10;;;0.38;;
31378;SDS011;61664;48.112;11.662;2022-09-27T00:21:32;0.30;;;0.30;;
31378;SDS011;61664;48.112;11.662;2022-09-27T00:23:59;0.50;;;0.50;;
31378;SDS011;61664;48.112;11.662;2022-09-27T00:26:26;0.40;;;0.40;;
31378;SDS011;61664;48.112;11.662;2022-09-27T00:36:50;0.40;;;0.40;;
31378;SDS011;61664;48.112;11.662;2022-09-27T00:39:18;0.60;;;0.60;;
31378;SDS011;61664;48.112;11.662;2022-09-27T00:41:45;0.85;;;0.50;;
31378;SDS011;61664;48.112;11.662;2022-09-27T00:49:34;0.30;;;0.30;;
31378;SDS011;61664;48.112;11.662;2022-09-27T00:52:14;0.68;;;0.68;;
31378;SDS011;61664;48.112;11.662;2022-09-27T00:54:49;1.27;;;0.60;;
31378;SDS011;61664;48.112;11.662;2022-09-27T00:57:21;0.63;;;0.57;;
31378;SDS011;61664;48.112;11.662;2022-09-27T00:59:50;0.50;;;0.50;;
31378;SDS011;61664;48.112;11.662;2022-09-27T01:02:24;0.65;;;0.65;;
31378;SDS011;61664;48.112;11.662;2022-09-27T01:04:52;0.40;;;0.38;;
31378;SDS011;61664;48.112;11.662;2022-09-27T01:07:20;0.40;;;0.40;;
31378;SDS011;61664;48.112;11.662;2022-09-27T01:09:47;0.60;;;0.40;;
31378;SDS011;61664;48.112;11.662;2022-09-27T01:12:31;0.52;;;0.50;;
31378;SDS011;61664;48.112;11.662;2022-09-27T01:47:18;0.57;;;0.57;;
31378;SDS011;61664;48.112;11.662;2022-09-27T01:50:00;0.60;;;0.60;;
31378;SDS011;61664;48.112;11.662;2022-09-27T01:52:48;1.25;;;0.55;;
31378;SDS011;61664;48.112;11.662;2022-09-27T01:55:22;0.75;;;0.47;;
31378;SDS011;61664;48.112;11.662;2022-09-27T01:57:58;0.55;;;0.55;;
31378;SDS011;61664;48.112;11.662;2022-09-27T02:00:35;0.95;;;0.52;;
31378;SDS011;61664;48.112;11.662;2022-09-27T02:03:12;0.80;;;0.80;;
31378;SDS011;61664;48.112;11.662;2022-09-27T02:05:52;0.60;;;0.60;;
31378;SDS011;61664;48.112;11.662;2022-09-27T02:08:31;0.85;;;0.70;;
31378;SDS011;61664;48.112;11.662;2022-09-27T02:11:08;0.73;;;0.73;;
31378;SDS011;61664;48.112;11.662;2022-09-27T02:19:04;1.83;;;0.77;;
31378;SDS011;61664;48.112;11.662;2022-09-27T02:21:51;2.50;;;1.02;;
31378;SDS011;61664;48.112;11.662;2022-09-27T02:24:49;1.02;;;0.93;;
31378;SDS011;61664;48.112;11.662;2022-09-27T02:28:07;1.38;;;1.27;;
31378;SDS011;61664;48.112;11.662;2022-09-27T02:30:50;1.10;;;1.00;;
31378;SDS011;61664;48.112;11.662;2022-09-27T02:33:21;1.35;;;0.98;;
31378;SDS011;61664;48.112;11.662;2022-09-27T02:35:56;12.23;;;1.50;;
31378;SDS011;61664;48.112;11.662;2022-09-27T02:38:24;1.20;;;0.70;;
31378;SDS011;61664;48.112;11.662;2022-09-27T02:40:52;1.20;;;0.93;;
31378;SDS011;61664;48.112;11.662;2022-09-27T02:43:19;1.33;;;1.10;;
31378;SDS011;61664;48.112;11.662;2022-09-27T02:55:15;1.15;;;1.05;;
31378;SDS011;61664;48.112;11.662;2022-09-27T03:06:52;0.60;;;0.60;;
31378;SDS011;61664;48.112;11.662;2022-09-27T03:09:23;1.08;;;0.93;;
31378;SDS011;61664;48.112;11.662;2022-09-27T03:12:04;1.10;;;1.02;;
31378;SDS011;61664;48.112;11.662;2022-09-27T03:14:31;1.38;;;1.00;;
31378;SDS011;61664;48.112;11.662;2022-09-27T03:16:58;2.22;;;0.93;;
31378;SDS011;61664;48.112;11.662;2022-09-27T03:19:25;0.95;;;0.85;;
31378;SDS011;61664;48.112;11.662;2022-09-27T03:21:52;1.13;;;0.80;;
31378;SDS011;61664;48.112;11.662;2022-09-27T03:24:19;1.40;;;1.30;;
31378;SDS011;61664;48.112;11.662;2022-09-27T03:26:46;1.33;;;1.23;;
31378;SDS011;61664;48.112;11.662;2022-09-27T03:29:13;1.25;;;1.15;;
31378;SDS011;61664;48.112;11.662;2022-09-27T03:31:40;1.00;;;1.00;;
31378;SDS011;61664;48.112;11.662;2022-09-27T03:34:07;1.38;;;1.27;;
31378;SDS011;61664;48.112;11.662;2022-09-27T03:36:34;1.33;;;1.05;;
31378;SDS011;61664;48.112;11.662;2022-09-27T03:39:01;0.77;;;0.77;;
31378;SDS011;61664;48.112;11.662;2022-09-27T03:41:28;1.23;;;1.13;;
31378;SDS011;61664;48.112;11.662;2022-09-27T03:43:55;1.88;;;1.02;;
31378;SDS011;61664;48.112;11.662;2022-09-27T03:46:23;1.05;;;1.05;;
31378;SDS011;61664;48.112;11.662;2022-09-27T03:48:50;1.35;;;0.90;;
31378;SDS011;61664;48.112;11.662;2022-09-27T03:51:17;1.77;;;1.35;;
31378;SDS011;61664;48.112;11.662;2022-09-27T03:53:44;2.75;;;1.20;;
31378;SDS011;61664;48.112;11.662;2022-09-27T03:56:11;2.05;;;1.00;;
31378;SDS011;61664;48.112;11.662;2022-09-27T03:58:38;0.77;;;0.77;;
31378;SDS011;61664;48.112;11.662;2022-09-27T04:01:05;1.20;;;1.10;;
31378;SDS011;61664;48.112;11.662;2022-09-27T04:03:32;0.80;;;0.77;;
31378;SDS011;61664;48.112;11.662;2022-09-27T04:06:01;2.55;;;0.82;;
31378;SDS011;61664;48.112;11.662;2022-09-27T04:08:29;1.40;;;1.30;;
31378;SDS011;61664;48.112;11.662;2022-09-27T04:10:56;0.90;;;0.90;;
31378;SDS011;61664;48.112;11.662;2022-09-27T04:13:23;1.45;;;1.30;;
31378;SDS011;61664;48.112;11.662;2022-09-27T04:15:50;0.88;;;0.88;;
31378;SDS011;61664;48.112;11.662;2022-09-27T04:18:17;1.15;;;1.02;;
31378;SDS011;61664;48.112;11.662;2022-09-27T04:20:44;1.13;;;1.02;;
31378;SDS011;61664;48.112;11.662;2022-09-27T04:23:11;1.38;;;1.13;;
31378;SDS011;61664;48.112;11.662;2022-09-27T04:25:38;2.03;;;1.10;;
31378;SDS011;61664;48.112;11.662;2022-09-27T04:28:05;1.00;;;1.00;;
31378;SDS011;61664;48.112;11.662;2022-09-27T04:30:32;1.35;;;1.25;;
31378;SDS011;61664;48.112;11.662;2022-09-27T04:32:59;1.02;;;1.02;;
31378;SDS011;61664;48.112;11.662;2022-09-27T04:35:26;1.08;;;0.98;;
31378;SDS011;61664;48.112;11.662;2022-09-27T04:38:12;1.08;;;1.08;;
31378;SDS011;61664;48.112;11.662;2022-09-27T04:40:39;1.75;;;1.50;;
31378;SDS011;61664;48.112;11.662;2022-09-27T04:43:07;1.02;;;0.93;;
31378;SDS011;61664;48.112;11.662;2022-09-27T04:45:34;1.27;;;1.17;;
31378;SDS011;61664;48.112;11.662;2022-09-27T04:48:01;1.55;;;1.45;;
31378;SDS011;61664;48.112;11.662;2022-09-27T04:50:28;1.15;;;1.05;;
31378;SDS011;61664;48.112;11.662;2022-09-27T04:53:01;1.88;;;1.33;;
31378;SDS011;61664;48.112;11.662;2022-09-27T04:55:27;1.30;;;1.20;;
31378;SDS011;61664;48.112;11.662;2022-09-27T04:57:54;1.30;;;1.20;;
31378;SDS011;61664;48.112;11.662;2022-09-27T05:00:21;1.33;;;1.20;;
31378;SDS011;61664;48.112;11.662;2022-09-27T05:02:48;1.58;;;1.30;;
31378;SDS011;61664;48.112;11.662;2022-09-27T05:05:16;1.50;;;1.27;;
31378;SDS011;61664;48.112;11.662;2022-09-27T05:07:43;1.60;;;1.38;;
31378;SDS011;61664;48.112;11.662;2022-09-27T05:10:09;1.50;;;1.40;;
31378;SDS011;61664;48.112;11.662;2022-09-27T05:12:36;1.13;;;1.02;;
31378;SDS011;61664;48.112;11.662;2022-09-27T05:15:04;1.25;;;1.15;;
31378;SDS011;61664;48.112;11.662;2022-09-27T05:17:31;1.17;;;1.08;;
31378;SDS011;61664;48.112;11.662;2022-09-27T05:19:59;1.80;;;1.70;;
31378;SDS011;61664;48.112;11.662;2022-09-27T05:22:26;1.45;;;1.20;;
31378;SDS011;61664;48.112;11.662;2022-09-27T05:24:53;1.10;;;1.10;;
31378;SDS011;61664;48.112;11.662;2022-09-27T05:27:20;1.05;;;0.98;;
31378;SDS011;61664;48.112;11.662;2022-09-27T05:29:48;1.20;;;0.90;;
31378;SDS011;61664;48.112;11.662;2022-09-27T05:32:15;1.10;;;0.90;;
31378;SDS011;61664;48.112;11.662;2022-09-27T05:34:42;1.33;;;1.23;;
31378;SDS011;61664;48.112;11.662;2022-09-27T05:37:09;1.10;;;1.00;;
31378;SDS011;61664;48.112;11.662;2022-09-27T05:39:36;0.80;;;0.80;;
31378;SDS011;61664;48.112;11.662;2022-09-27T05:42:03;1.35;;;1.02;;
31378;SDS011;61664;48.112;11.662;2022-09-27T05:44:32;0.85;;;0.80;;
31378;SDS011;61664;48.112;11.662;2022-09-27T05:47:00;1.45;;;0.82;;
31378;SDS011;61664;48.112;11.662;2022-09-27T05:49:33;0.57;;;0.57;;
31378;SDS011;61664;48.112;11.662;2022-09-27T05:52:00;0.57;;;0.50;;
31378;SDS011;61664;48.112;11.662;2022-09-27T05:54:27;0.50;;;0.50;;
31378;SDS011;61664;48.112;11.662;2022-09-27T05:56:55;0.50;;;0.50;;
31378;SDS011;61664;48.112;11.662;2022-09-27T05:59:24;0.52;;;0.45;;
31378;SDS011;61664;48.112;11.662;2022-09-27T06:01:52;0.70;;;0.35;;
31378;SDS011;61664;48.112;11.662;2022-09-27T06:04:21;1.23;;;0.45;;
31378;SDS011;61664;48.112;11.662;2022-09-27T06:06:48;1.63;;;0.43;;
31378;SDS011;61664;48.112;11.662;2022-09-27T06:09:15;0.68;;;0.30;;
31378;SDS011;61664;48.112;11.662;2022-09-27T06:11:42;0.30;;;0.30;;
31378;SDS011;61664;48.112;11.662;2022-09-27T06:14:11;0.50;;;0.50;;
31378;SDS011;61664;48.112;11.662;2022-09-27T06:16:39;0.70;;;0.30;;
31378;SDS011;61664;48.112;11.662;2022-09-27T06:19:06;3.55;;;0.65;;
31378;SDS011;61664;48.112;11.662;2022-09-27T06:21:33;0.30;;;0.30;;
31378;SDS011;61664;48.112;11.662;2022-09-27T06:24:01;0.88;;;0.35;;
31378;SDS011;61664;48.112;11.662;2022-09-27T06:26:28;1.52;;;0.50;;
31378;SDS011;61664;48.112;11.662;2022-09-27T06:28:55;0.30;;;0.30;;
31378;SDS011;61664;48.112;11.662;2022-09-27T06:31:22;0.70;;;0.40;;
31378;SDS011;61664;48.112;11.662;2022-09-27T06:33:49;1.55;;;0.30;;
31378;SDS011;61664;48.112;11.662;2022-09-27T06:36:16;0.90;;;0.30;;
31378;SDS011;61664;48.112;11.662;2022-09-27T06:38:43;0.38;;;0.30;;
31378;SDS011;61664;48.112;11.662;2022-09-27T06:41:11;0.77;;;0.30;;
31378;SDS011;61664;48.112;11.662;2022-09-27T06:43:40;0.43;;;0.40;;
31378;SDS011;61664;48.112;11.662;2022-09-27T06:46:07;0.47;;;0.30;;
31378;SDS011;61664;48.112;11.662;2022-09-27T06:48:34;1.50;;;0.40;;
31378;SDS011;61664;48.112;11.662;2022-09-27T06:51:04;1.05;;;0.40;;
31378;SDS011;61664;48.112;11.662;2022-09-27T06:53:31;2.10;;;0.38;;
31378;SDS011;61664;48.112;11.662;2022-09-27T06:56:01;0.32;;;0.32;;
31378;SDS011;61664;48.112;11.662;2022-09-27T06:58:28;0.60;;;0.40;;
31378;SDS011;61664;48.112;11.662;2022-09-27T07:01:13;0.82;;;0.35;;
31378;SDS011;61664;48.112;11.662;2022-09-27T07:03:42;0.30;;;0.30;;
31378;SDS011;61664;48.112;11.662;2022-09-27T07:06:16;0.40;;;0.40;;
31378;SDS011;61664;48.112;11.662;2022-09-27T07:08:51;0.40;;;0.40;;
31378;SDS011;61664;48.112;11.662;2022-09-27T07:11:19;1.65;;;0.40;;
31378;SDS011;61664;48.112;11.662;2022-09-27T07:13:48;0.55;;;0.40;;
31378;SDS011;61664;48.112;11.662;2022-09-27T07:16:17;0.47;;;0.47;;
31378;SDS011;61664;48.112;11.662;2022-09-27T07:18:45;0.50;;;0.40;;
31378;SDS011;61664;48.112;11.662;2022-09-27T07:21:16;1.98;;;0.70;;
31378;SDS011;61664;48.112;11.662;2022-09-27T07:23:43;1.52;;;0.45;;
31378;SDS011;61664;48.112;11.662;2022-09-27T07:26:10;2.03;;;0.60;;
31378;SDS011;61664;48.112;11.662;2022-09-27T07:28:38;2.33;;;0.82;;
31378;SDS011;61664;48.112;11.662;2022-09-27T07:31:07;0.50;;;0.47;;
31378;SDS011;61664;48.112;11.662;2022-09-27T07:33:35;0.55;;;0.38;;
31378;SDS011;61664;48.112;11.662;2022-09-27T07:36:08;2.58;;;0.73;;
31378;SDS011;61664;48.112;11.662;2022-09-27T07:38:36;1.15;;;0.47;;
31378;SDS011;61664;48.112;11.662;2022-09-27T07:41:10;3.40;;;0.73;;
31378;SDS011;61664;48.112;11.662;2022-09-27T07:43:42;1.38;;;0.40;;
31378;SDS011;61664;48.112;11.662;2022-09-27T07:46:10;0.70;;;0.45;;
31378;SDS011;61664;48.112;11.662;2022-09-27T07:48:39;1.00;;;0.60;;
31378;SDS011;61664;48.112;11.662;2022-09-27T07:51:06;1.30;;;0.70;;
31378;SDS011;61664;48.112;11.662;2022-09-27T07:53:35;0.93;;;0.32;;
31378;SDS011;61664;48.112;11.662;2022-09-27T07:56:02;0.70;;;0.38;;
31378;SDS011;61664;48.112;11.662;2022-09-27T07:58:29;0.68;;;0.38;;
31378;SDS011;61664;48.112;11.662;2022-09-27T08:00:57;0.50;;;0.30;;
31378;SDS011;61664;48.112;11.662;2022-09-27T08:03:26;1.27;;;0.20;;
31378;SDS011;61664;48.112;11.662;2022-09-27T08:05:53;0.35;;;0.35;;
31378;SDS011;61664;48.112;11.662;2022-09-27T08:08:20;1.05;;;0.20;;
31378;SDS011;61664;48.112;11.662;2022-09-27T08:10:47;0.30;;;0.20;;
31378;SDS011;61664;48.112;11.662;2022-09-27T08:13:14;0.50;;;0.30;;
31378;SDS011;61664;48.112;11.662;2022-09-27T08:15:45;0.38;;;0.13;;
31378;SDS011;61664;48.112;11.662;2022-09-27T08:18:13;0.30;;;0.20;;
31378;SDS011;61664;48.112;11.662;2022-09-27T08:20:41;0.13;;;0.13;;
31378;SDS011;61664;48.112;11.662;2022-09-27T08:23:08;0.30;;;0.30;;
31378;SDS011;61664;48.112;11.662;2022-09-27T08:25:35;0.25;;;0.10;;
31378;SDS011;61664;48.112;11.662;2022-09-27T08:28:02;0.50;;;0.10;;
31378;SDS011;61664;48.112;11.662;2022-09-27T08:30:30;0.10;;;0.10;;
31378;SDS011;61664;48.112;11.662;2022-09-27T08:32:58;0.10;;;0.10;;
31378;SDS011;61664;48.112;11.662;2022-09-27T08:35:28;0.10;;;0.10;;
31378;SDS011;61664;48.112;11.662;2022-09-27T08:37:59;0.20;;;0.20;;
31378;SDS011;61664;48.112;11.662;2022-09-27T08:41:17;0.30;;;0.10;;
31378;SDS011;61664;48.112;11.662;2022-09-27T08:43:42;0.20;;;0.20;;
31378;SDS011;61664;48.112;11.662;2022-09-27T08:49:32;0.28;;;0.20;;
31378;SDS011;61664;48.112;11.662;2022-09-27T08:52:20;1.88;;;0.20;;
31378;SDS011;61664;48.112;11.662;2022-09-27T08:54:54;0.73;;;0.30;;
31378;SDS011;61664;48.112;11.662;2022-09-27T08:57:26;0.57;;;0.30;;
31378;SDS011;61664;48.112;11.662;2022-09-27T09:00:11;0.57;;;0.20;;
31378;SDS011;61664;48.112;11.662;2022-09-27T09:02:39;0.70;;;0.20;;
31378;SDS011;61664;48.112;11.662;2022-09-27T09:05:08;0.63;;;0.43;;
31378;SDS011;61664;48.112;11.662;2022-09-27T09:17:16;0.52;;;0.30;;
31378;SDS011;61664;48.112;11.662;2022-09-27T09:19:50;0.30;;;0.30;;
31378;SDS011;61664;48.112;11.662;2022-09-27T09:25:54;0.38;;;0.20;;
31378;SDS011;61664;48.112;11.662;2022-09-27T09:35:00;0.40;;;0.20;;
31378;SDS011;61664;48.112;11.662;2022-09-27T09:40:06;0.20;;;0.20;;
31378;SDS011;61664;48.112;11.662;2022-09-27T09:45:46;0.20;;;0.20;;
31378;SDS011;61664;48.112;11.662;2022-09-27T09:48:31;0.40;;;0.40;;
31378;SDS011;61664;48.112;11.662;2022-09-27T09:51:18;0.20;;;0.20;;
31378;SDS011;61664;48.112;11.662;2022-09-27T09:54:04;0.57;;;0.30;;
31378;SDS011;61664;48.112;11.662;2022-09-27T09:56:43;0.10;;;0.10;;
31378;SDS011;61664;48.112;11.662;2022-09-27T10:00:35;0.82;;;0.40;;
31378;SDS011;61664;48.112;11.662;2022-09-27T10:02:53;0.30;;;0.30;;
31378;SDS011;61664;48.112;11.662;2022-09-27T10:05:25;0.40;;;0.40;;
31378;SDS011;61664;48.112;11.662;2022-09-27T10:07:54;0.32;;;0.32;;
31378;SDS011;61664;48.112;11.662;2022-09-27T10:10:27;0.20;;;0.20;;
31378;SDS011;61664;48.112;11.662;2022-09-27T10:12:55;0.45;;;0.20;;
31378;SDS011;61664;48.112;11.662;2022-09-27T10:15:23;0.28;;;0.20;;
31378;SDS011;61664;48.112;11.662;2022-09-27T10:17:55;0.57;;;0.40;;
31378;SDS011;61664;48.112;11.662;2022-09-27T10:20:32;0.63;;;0.50;;
31378;SDS011;61664;48.112;11.662;2022-09-27T10:24:16;0.30;;;0.30;;
31378;SDS011;61664;48.112;11.662;2022-09-27T10:26:44;0.63;;;0.25;;
31378;SDS011;61664;48.112;11.662;2022-09-27T10:32:02;2.35;;;0.55;;
31378;SDS011;61664;48.112;11.662;2022-09-27T10:34:47;0.10;;;0.10;;
31378;SDS011;61664;48.112;11.662;2022-09-27T10:37:15;0.20;;;0.20;;
31378;SDS011;61664;48.112;11.662;2022-09-27T10:39:49;0.43;;;0.20;;
31378;SDS011;61664;48.112;11.662;2022-09-27T10:42:36;0.45;;;0.22;;
31378;SDS011;61664;48.112;11.662;2022-09-27T10:47:57;0.20;;;0.20;;
31378;SDS011;61664;48.112;11.662;2022-09-27T10:50:30;0.30;;;0.30;;
31378;SDS011;61664;48.112;11.662;2022-09-27T10:53:20;0.20;;;0.20;;
31378;SDS011;61664;48.112;11.662;2022-09-27T10:55:49;0.40;;;0.40;;
31378;SDS011;61664;48.112;11.662;2022-09-27T10:58:19;1.10;;;0.40;;
31378;SDS011;61664;48.112;11.662;2022-09-27T11:00:58;0.50;;;0.40;;
31378;SDS011;61664;48.112;11.662;2022-09-27T11:03:30;0.50;;;0.50;;
31378;SDS011;61664;48.112;11.662;2022-09-27T11:08:48;0.93;;;0.50;;
31378;SDS011;61664;48.112;11.662;2022-09-27T11:11:18;0.70;;;0.30;;
31378;SDS011;61664;48.112;11.662;2022-09-27T11:20:07;1.65;;;0.40;;
31378;SDS011;61664;48.112;11.662;2022-09-27T11:25:46;0.95;;;0.40;;
31378;SDS011;61664;48.112;11.662;2022-09-27T11:28:39;0.47;;;0.30;;
31378;SDS011;61664;48.112;11.662;2022-09-27T11:48:43;0.15;;;0.15;;
31378;SDS011;61664;48.112;11.662;2022-09-27T12:00:09;0.50;;;0.40;;
31378;SDS011;61664;48.112;11.662;2022-09-27T12:08:27;0.22;;;0.20;;
31378;SDS011;61664;48.112;11.662;2022-09-27T12:11:22;0.20;;;0.20;;
31378;SDS011;61664;48.112;11.662;2022-09-27T12:14:12;0.30;;;0.22;;
31378;SDS011;61664;48.112;11.662;2022-09-27T12:16:42;0.20;;;0.20;;
31378;SDS011;61664;48.112;11.662;2022-09-27T12:21:49;0.20;;;0.17;;
31378;SDS011;61664;48.112;11.662;2022-09-27T12:24:20;0.20;;;0.20;;
31378;SDS011;61664;48.112;11.662;2022-09-27T12:26:53;0.20;;;0.20;;
31378;SDS011;61664;48.112;11.662;2022-09-27T12:29:28;0.30;;;0.30;;
31378;SDS011;61664;48.112;11.662;2022-09-27T12:35:33;0.50;;;0.20;;
31378;SDS011;61664;48.112;11.662;2022-09-27T12:38:12;0.47;;;0.40;;
31378;SDS011;61664;48.112;11.662;2022-09-27T12:40:52;0.70;;;0.68;;
31378;SDS011;61664;48.112;11.662;2022-09-27T12:43:26;0.90;;;0.90;;
31378;SDS011;61664;48.112;11.662;2022-09-27T12:51:35;0.40;;;0.40;;
31378;SDS011;61664;48.112;11.662;2022-09-27T12:57:23;0.70;;;0.60;;
31378;SDS011;61664;48.112;11.662;2022-09-27T13:14:53;0.50;;;0.40;;
31378;SDS011;61664;48.112;11.662;2022-09-27T13:22:56;2.05;;;0.22;;
31378;SDS011;61664;48.112;11.662;2022-09-27T13:29:10;0.32;;;0.20;;
31378;SDS011;61664;48.112;11.662;2022-09-27T13:40:34;1.00;;;0.20;;
31378;SDS011;61664;48.112;11.662;2022-09-27T13:48:50;0.52;;;0.20;;
31378;SDS011;61664;48.112;11.662;2022-09-27T13:51:48;0.70;;;0.70;;
31378;SDS011;61664;48.112;11.662;2022-09-27T14:00:27;1.13;;;1.02;;
31378;SDS011;61664;48.112;11.662;2022-09-27T14:06:19;0.38;;;0.35;;
31378;SDS011;61664;48.112;11.662;2022-09-27T14:08:59;0.40;;;0.20;;
31378;SDS011;61664;48.112;11.662;2022-09-27T14:11:34;2.38;;;0.40;;
31378;SDS011;61664;48.112;11.662;2022-09-27T14:14:06;0.95;;;0.30;;
31378;SDS011;61664;48.112;11.662;2022-09-27T14:16:47;0.60;;;0.43;;
31378;SDS011;61664;48.112;11.662;2022-09-27T14:19:18;0.73;;;0.30;;
31378;SDS011;61664;48.112;11.662;2022-09-27T14:21:49;1.20;;;0.30;;
31378;SDS011;61664;48.112;11.662;2022-09-27T14:30:12;0.45;;;0.15;;
31378;SDS011;61664;48.112;11.662;2022-09-27T14:32:48;0.10;;;0.10;;
31378;SDS011;61664;48.112;11.662;2022-09-27T14:35:21;0.10;;;0.10;;
31378;SDS011;61664;48.112;11.662;2022-09-27T14:38:18;0.20;;;0.20;;
31378;SDS011;61664;48.112;11.662;2022-09-27T14:41:03;0.13;;;0.13;;
31378;SDS011;61664;48.112;11.662;2022-09-27T14:43:33;0.10;;;0.10;;
31378;SDS011;61664;48.112;11.662;2022-09-27T14:46:06;1.75;;;0.20;;
31378;SDS011;61664;48.112;11.662;2022-09-27T14:48:53;0.25;;;0.10;;
31378;SDS011;61664;48.112;11.662;2022-09-27T14:51:29;0.52;;;0.20;;
31378;SDS011;61664;48.112;11.662;2022-09-27T14:53:58;0.65;;;0.10;;
31378;SDS011;61664;48.112;11.662;2022-09-27T14:56:33;0.32;;;0.10;;
31378;SDS011;61664;48.112;11.662;2022-09-27T14:59:06;0.80;;;0.17;;
31378;SDS011;61664;48.112;11.662;2022-09-27T15:01:50;1.75;;;0.52;;
31378;SDS011;61664;48.112;11.662;2022-09-27T15:04:19;0.10;;;0.10;;
31378;SDS011;61664;48.112;11.662;2022-09-27T15:06:49;0.35;;;0.20;;
31378;SDS011;61664;48.112;11.662;2022-09-27T15:09:16;0.30;;;0.20;;
31378;SDS011;61664;48.112;11.662;2022-09-27T15:11:46;0.55;;;0.10;;
31378;SDS011;61664;48.112;11.662;2022-09-27T15:14:19;0.20;;;0.10;;
31378;SDS011;61664;48.112;11.662;2022-09-27T15:16:50;2.10;;;0.30;;
31378;SDS011;61664;48.112;11.662;2022-09-27T15:19:24;1.70;;;0.20;;
31378;SDS011;61664;48.112;11.662;2022-09-27T15:21:55;0.65;;;0.30;;
31378;SDS011;61664;48.112;11.662;2022-09-27T15:25:03;0.32;;;0.20;;
31378;SDS011;61664;48.112;11.662;2022-09-27T15:27:48;0.82;;;0.20;;
31378;SDS011;61664;48.112;11.662;2022-09-27T15:30:25;0.40;;;0.20;;
31378;SDS011;61664;48.112;11.662;2022-09-27T15:32:58;0.70;;;0.38;;
31378;SDS011;61664;48.112;11.662;2022-09-27T15:35:35;0.50;;;0.28;;
31378;SDS011;61664;48.112;11.662;2022-09-27T15:38:09;0.75;;;0.30;;
31378;SDS011;61664;48.112;11.662;2022-09-27T15:43:32;0.38;;;0.38;;
31378;SDS011;61664;48.112;11.662;2022-09-27T15:51:56;0.80;;;0.52;;
31378;SDS011;61664;48.112;11.662;2022-09-27T15:54:26;0.40;;;0.30;;
31378;SDS011;61664;48.112;11.662;2022-09-27T15:56:59;0.52;;;0.30;;
31378;SDS011;61664;48.112;11.662;2022-09-27T15:59:33;0.22;;;0.20;;
31378;SDS011;61664;48.112;11.662;2022-09-27T16:02:03;0.52;;;0.32;;
31378;SDS011;61664;48.112;11.662;2022-09-27T16:04:41;0.90;;;0.50;;
31378;SDS011;61664;48.112;11.662;2022-09-27T16:07:09;0.93;;;0.70;;
31378;SDS011;61664;48.112;11.662;2022-09-27T16:09:37;0.45;;;0.40;;
31378;SDS011;61664;48.112;11.662;2022-09-27T16:12:04;3.00;;;0.30;;
31378;SDS011;61664;48.112;11.662;2022-09-27T16:14:30;0.60;;;0.30;;
31378;SDS011;61664;48.112;11.662;2022-09-27T16:16:58;0.93;;;0.30;;
31378;SDS011;61664;48.112;11.662;2022-09-27T16:19:25;0.63;;;0.30;;
31378;SDS011;61664;48.112;11.662;2022-09-27T16:21:52;0.45;;;0.35;;
31378;SDS011;61664;48.112;11.662;2022-09-27T16:24:18;0.50;;;0.50;;
31378;SDS011;61664;48.112;11.662;2022-09-27T16:26:45;1.45;;;0.60;;
31378;SDS011;61664;48.112;11.662;2022-09-27T16:29:13;0.60;;;0.45;;
31378;SDS011;61664;48.112;11.662;2022-09-27T16:31:41;0.98;;;0.60;;
31378;SDS011;61664;48.112;11.662;2022-09-27T16:34:09;0.57;;;0.40;;
31378;SDS011;61664;48.112;11.662;2022-09-27T16:36:37;1.15;;;0.40;;
31378;SDS011;61664;48.112;11.662;2022-09-27T16:39:05;0.65;;;0.50;;
31378;SDS011;61664;48.112;11.662;2022-09-27T16:41:38;0.60;;;0.60;;
31378;SDS011;61664;48.112;11.662;2022-09-27T16:44:10;0.50;;;0.50;;
31378;SDS011;61664;48.112;11.662;2022-09-27T16:46:43;0.40;;;0.40;;
31378;SDS011;61664;48.112;11.662;2022-09-27T16:49:11;0.45;;;0.45;;
31378;SDS011;61664;48.112;11.662;2022-09-27T16:51:57;0.50;;;0.30;;
31378;SDS011;61664;48.112;11.662;2022-09-27T16:54:27;0.43;;;0.40;;
31378;SDS011;61664;48.112;11.662;2022-09-27T16:56:56;0.40;;;0.40;;
31378;SDS011;61664;48.112;11.662;2022-09-27T16:59:24;0.95;;;0.40;;
31378;SDS011;61664;48.112;11.662;2022-09-27T17:01:52;0.70;;;0.35;;
31378;SDS011;61664;48.112;11.662;2022-09-27T17:04:24;0.57;;;0.43;;
31378;SDS011;61664;48.112;11.662;2022-09-27T17:06:53;0.45;;;0.32;;
31378;SDS011;61664;48.112;11.662;2022-09-27T17:09:21;0.90;;;0.73;;
31378;SDS011;61664;48.112;11.662;2022-09-27T17:11:48;1.50;;;1.10;;
31378;SDS011;61664;48.112;11.662;2022-09-27T17:14:16;1.58;;;0.70;;
31378;SDS011;61664;48.112;11.662;2022-09-27T17:16:43;3.22;;;1.23;;
31378;SDS011;61664;48.112;11.662;2022-09-27T17:19:12;3.35;;;1.50;;
31378;SDS011;61664;48.112;11.662;2022-09-27T17:21:40;4.72;;;1.70;;
31378;SDS011;61664;48.112;11.662;2022-09-27T17:24:11;1.52;;;0.90;;
31378;SDS011;61664;48.112;11.662;2022-09-27T17:26:38;2.25;;;1.63;;
31378;SDS011;61664;48.112;11.662;2022-09-27T17:29:10;1.92;;;1.20;;
31378;SDS011;61664;48.112;11.662;2022-09-27T17:31:39;1.90;;;1.15;;
31378;SDS011;61664;48.112;11.662;2022-09-27T17:34:07;1.25;;;0.60;;
31378;SDS011;61664;48.112;11.662;2022-09-27T17:36:41;1.25;;;0.57;;
31378;SDS011;61664;48.112;11.662;2022-09-27T17:39:17;0.70;;;0.60;;
31378;SDS011;61664;48.112;11.662;2022-09-27T17:41:49;0.40;;;0.40;;
31378;SDS011;61664;48.112;11.662;2022-09-27T17:44:16;1.02;;;0.90;;
31378;SDS011;61664;48.112;11.662;2022-09-27T17:46:44;1.50;;;0.70;;
31378;SDS011;61664;48.112;11.662;2022-09-27T17:49:12;0.50;;;0.50;;
31378;SDS011;61664;48.112;11.662;2022-09-27T17:51:58;1.40;;;1.05;;
31378;SDS011;61664;48.112;11.662;2022-09-27T17:54:26;1.27;;;0.63;;
31378;SDS011;61664;48.112;11.662;2022-09-27T17:56:53;3.53;;;2.20;;
31378;SDS011;61664;48.112;11.662;2022-09-27T17:59:21;1.60;;;1.10;;
31378;SDS011;61664;48.112;11.662;2022-09-27T18:01:48;1.27;;;0.85;;
31378;SDS011;61664;48.112;11.662;2022-09-27T18:04:16;0.65;;;0.65;;
31378;SDS011;61664;48.112;11.662;2022-09-27T18:06:45;0.70;;;0.50;;
31378;SDS011;61664;48.112;11.662;2022-09-27T18:09:13;0.70;;;0.70;;
31378;SDS011;61664;48.112;11.662;2022-09-27T18:11:42;0.43;;;0.43;;
31378;SDS011;61664;48.112;11.662;2022-09-27T18:14:10;0.60;;;0.50;;
31378;SDS011;61664;48.112;11.662;2022-09-27T18:16:39;0.80;;;0.60;;
31378;SDS011;61664;48.112;11.662;2022-09-27T18:19:10;0.90;;;0.70;;
31378;SDS011;61664;48.112;11.662;2022-09-27T18:21:42;0.52;;;0.52;;
31378;SDS011;61664;48.112;11.662;2022-09-27T18:24:09;2.17;;;1.00;;
31378;SDS011;61664;48.112;11.662;2022-09-27T18:26:39;0.93;;;0.70;;
31378;SDS011;61664;48.112;11.662;2022-09-27T18:29:07;0.43;;;0.43;;
31378;SDS011;61664;48.112;11.662;2022-09-27T18:31:38;0.35;;;0.35;;
31378;SDS011;61664;48.112;11.662;2022-09-27T18:34:12;0.52;;;0.40;;
31378;SDS011;61664;48.112;11.662;2022-09-27T18:36:39;0.40;;;0.30;;
31378;SDS011;61664;48.112;11.662;2022-09-27T18:39:11;0.32;;;0.30;;
31378;SDS011;61664;48.112;11.662;2022-09-27T18:41:43;0.20;;;0.20;;
31378;SDS011;61664;48.112;11.662;2022-09-27T18:44:13;2.20;;;0.40;;
31378;SDS011;61664;48.112;11.662;2022-09-27T18:46:42;0.30;;;0.30;;